createdAt,value
2019-03-27T00:00:37.630Z,100.00
2019-03-27T00:03:45.312Z,99.99
2019-03-27T00:06:53.016Z,100.00
2019-03-27T00:10:00.784Z,100.00
2019-03-27T00:13:08.689Z,100.00
2019-03-27T00:16:16.354Z,100.00
2019-03-27T00:19:24.346Z,100.00
2019-03-27T00:22:32.092Z,100.00
2019-03-27T00:25:39.840Z,100.00
2019-03-27T00:28:47.535Z,100.00
2019-03-27T00:31:55.257Z,100.00
2019-03-27T00:35:04.417Z,100.00
2019-03-27T00:38:12.295Z,100.00
2019-03-27T00:41:19.948Z,100.00
2019-03-27T00:44:27.806Z,100.00
2019-03-27T00:47:35.498Z,100.00
2019-03-27T00:50:44.324Z,99.96
2019-03-27T00:53:52.062Z,99.94
2019-03-27T00:57:01.464Z,100.00
2019-03-27T01:00:15.300Z,100.00
2019-03-27T01:03:22.993Z,100.00
2019-03-27T01:06:30.787Z,100.00
2019-03-27T01:09:38.840Z,100.00
2019-03-27T01:12:46.524Z,100.00
2019-03-27T01:15:54.598Z,100.00
2019-03-27T01:19:02.320Z,100.00
2019-03-27T01:22:10.018Z,99.57
2019-03-27T01:25:17.805Z,99.30
2019-03-27T01:28:25.601Z,99.09
2019-03-27T01:31:34.505Z,99.21
2019-03-27T01:34:43.713Z,98.86
2019-03-27T01:37:51.522Z,99.06
2019-03-27T01:41:00.442Z,99.39
2019-03-27T01:44:08.197Z,99.78
2019-03-27T01:47:15.898Z,100.00
2019-03-27T01:50:23.589Z,100.00
2019-03-27T01:53:31.306Z,100.00
2019-03-27T01:56:39.019Z,99.05
2019-03-27T01:59:47.087Z,99.54
2019-03-27T02:02:54.757Z,98.81
2019-03-27T02:06:02.675Z,98.56
2019-03-27T02:09:10.653Z,98.61
2019-03-27T02:12:18.332Z,98.22
2019-03-27T02:15:26.375Z,97.78
2019-03-27T02:18:34.144Z,98.58
2019-03-27T02:21:41.870Z,98.22
2019-03-27T02:24:49.600Z,97.70
2019-03-27T02:27:57.377Z,97.04
2019-03-27T02:31:05.088Z,96.67
2019-03-27T02:34:12.754Z,96.01
2019-03-27T02:37:20.679Z,97.71
2019-03-27T02:40:28.328Z,98.41
2019-03-27T02:43:36.226Z,97.89
2019-03-27T02:46:43.990Z,97.66
2019-03-27T02:49:51.832Z,99.13
2019-03-27T02:52:59.512Z,100.00
2019-03-27T02:56:11.738Z,99.28
2019-03-27T02:59:29.135Z,99.56
2019-03-27T03:02:38.568Z,99.52
2019-03-27T03:05:48.565Z,100.00
2019-03-27T03:08:59.232Z,99.49
2019-03-27T03:12:08.812Z,98.03
2019-03-27T03:15:25.638Z,96.02
2019-03-27T03:18:35.052Z,96.79
2019-03-27T03:21:42.834Z,95.49
2019-03-27T03:24:50.720Z,96.51
2019-03-27T03:27:58.779Z,96.64
2019-03-27T03:31:06.433Z,97.92
2019-03-27T03:34:14.167Z,99.20
2019-03-27T03:37:22.139Z,98.88
2019-03-27T03:40:29.836Z,99.39
2019-03-27T03:43:37.489Z,98.22
2019-03-27T03:46:58.911Z,96.55
2019-03-27T03:49:54.755Z,98.72
2019-03-27T03:53:02.539Z,100.00
2019-03-27T03:56:11.215Z,100.00
2019-03-27T03:59:20.574Z,100.00
2019-03-27T04:02:30.407Z,100.00
2019-03-27T04:05:39.354Z,100.00
2019-03-27T04:08:47.238Z,100.00
2019-03-27T04:11:54.941Z,100.00
2019-03-27T04:15:02.606Z,100.00
2019-03-27T04:18:10.441Z,100.00
2019-03-27T04:21:18.574Z,100.00
2019-03-27T04:24:26.265Z,100.00
2019-03-27T04:27:33.919Z,100.00
2019-03-27T04:30:41.652Z,100.00
2019-03-27T04:33:49.233Z,100.00
2019-03-27T04:36:57.015Z,100.00
2019-03-27T04:40:05.000Z,100.00
2019-03-27T04:43:13.337Z,100.00
2019-03-27T04:46:21.111Z,100.00
2019-03-27T04:49:28.725Z,100.00
2019-03-27T04:52:36.500Z,100.00
2019-03-27T04:55:44.321Z,100.00
2019-03-27T04:58:51.916Z,100.00
2019-03-27T05:01:59.627Z,100.00
2019-03-27T05:05:08.107Z,100.00
2019-03-27T05:08:17.221Z,100.00
2019-03-27T05:11:24.925Z,100.00
2019-03-27T05:14:32.839Z,100.00
2019-03-27T05:17:46.187Z,100.00
2019-03-27T05:20:50.160Z,100.00
2019-03-27T05:24:01.664Z,100.00
2019-03-27T05:27:10.202Z,100.00
2019-03-27T05:30:28.152Z,100.00
2019-03-27T05:33:35.971Z,100.00
2019-03-27T05:36:43.795Z,100.00
2019-03-27T05:39:51.485Z,100.00
2019-03-27T05:43:00.895Z,100.00
2019-03-27T05:46:08.773Z,100.00
2019-03-27T05:49:16.351Z,100.00
2019-03-27T05:52:25.330Z,100.00
2019-03-27T05:55:33.051Z,100.00
2019-03-27T05:58:42.228Z,100.00
2019-03-27T06:01:50.894Z,100.00
2019-03-27T06:04:59.387Z,100.00
2019-03-27T06:08:08.218Z,100.00
2019-03-27T06:11:18.526Z,100.00
2019-03-27T06:14:27.695Z,100.00
2019-03-27T06:17:37.629Z,100.00
2019-03-27T06:20:46.819Z,100.00
2019-03-27T06:23:56.397Z,100.00
2019-03-27T06:27:07.341Z,100.00
2019-03-27T06:30:18.173Z,100.00
2019-03-27T06:33:27.219Z,100.00
2019-03-27T06:36:36.232Z,100.00
2019-03-27T06:39:45.054Z,99.93
2019-03-27T06:42:54.021Z,100.00
2019-03-27T06:46:02.809Z,100.00
2019-03-27T06:49:11.749Z,100.00
2019-03-27T06:52:21.115Z,100.00
2019-03-27T06:55:29.890Z,100.00
2019-03-27T06:58:38.726Z,100.00
2019-03-27T07:01:47.670Z,100.00
2019-03-27T07:04:58.247Z,100.00
2019-03-27T07:08:08.065Z,100.00
2019-03-27T07:11:15.787Z,100.00
2019-03-27T07:14:24.693Z,100.00
2019-03-27T07:17:33.611Z,100.00
2019-03-27T07:20:41.390Z,100.00
2019-03-27T07:23:49.231Z,100.00
2019-03-27T07:26:56.953Z,100.00
2019-03-27T07:30:05.279Z,100.00
2019-03-27T07:33:15.980Z,100.00
2019-03-27T07:36:23.737Z,100.00
2019-03-27T07:39:36.507Z,100.00
2019-03-27T07:42:44.271Z,100.00
2019-03-27T07:45:51.984Z,100.00
2019-03-27T07:48:59.645Z,100.00
2019-03-27T07:52:07.455Z,100.00
2019-03-27T07:55:19.615Z,100.00
2019-03-27T07:58:24.710Z,99.74
2019-03-27T08:01:32.387Z,99.15
2019-03-27T08:04:40.075Z,98.33
2019-03-27T08:07:49.160Z,98.17
2019-03-27T08:11:00.120Z,98.09
2019-03-27T08:14:07.850Z,97.68
2019-03-27T08:17:22.376Z,96.75
2019-03-27T08:20:31.753Z,96.71
2019-03-27T08:23:39.681Z,97.34
2019-03-27T08:26:47.342Z,97.34
2019-03-27T08:29:56.133Z,96.77
2019-03-27T08:33:03.977Z,96.67
2019-03-27T08:36:11.671Z,96.46
2019-03-27T08:39:19.304Z,96.66
2019-03-27T08:42:27.016Z,95.77
2019-03-27T08:45:34.706Z,95.65
2019-03-27T08:48:42.391Z,96.03
2019-03-27T08:51:50.028Z,95.17
2019-03-27T08:54:57.837Z,95.14
2019-03-27T08:58:05.498Z,94.64
2019-03-27T09:01:13.206Z,94.77
2019-03-27T09:04:20.860Z,95.44
2019-03-27T09:07:28.655Z,94.44
2019-03-27T09:10:36.323Z,93.80
2019-03-27T09:13:44.101Z,93.86
2019-03-27T09:16:51.864Z,93.56
2019-03-27T09:20:00.703Z,93.18
2019-03-27T09:23:08.397Z,92.53
2019-03-27T09:26:16.098Z,91.24
2019-03-27T09:29:23.798Z,90.90
2019-03-27T09:32:31.654Z,89.29
2019-03-27T09:35:39.922Z,89.86
2019-03-27T09:38:47.839Z,89.99
2019-03-27T09:41:55.501Z,88.73
2019-03-27T09:45:03.195Z,89.11
2019-03-27T09:48:10.916Z,87.57
2019-03-27T09:51:18.693Z,85.83
2019-03-27T09:54:27.423Z,85.77
2019-03-27T09:57:35.144Z,86.71
2019-03-27T10:01:10.991Z,85.97
2019-03-27T10:04:18.695Z,86.11
2019-03-27T10:07:27.513Z,83.50
2019-03-27T10:10:35.375Z,85.19
2019-03-27T10:13:43.074Z,83.69
2019-03-27T10:16:50.786Z,83.39
2019-03-27T10:20:03.736Z,83.57
2019-03-27T10:23:08.384Z,83.64
2019-03-27T10:26:16.227Z,83.34
2019-03-27T10:29:25.556Z,83.29
2019-03-27T10:32:33.145Z,83.10
2019-03-27T10:35:40.900Z,83.79
2019-03-27T10:38:48.528Z,84.03
2019-03-27T10:41:56.240Z,82.96
2019-03-27T10:45:04.033Z,83.46
2019-03-27T10:48:11.797Z,81.84
2019-03-27T10:51:19.552Z,82.37
2019-03-27T10:54:27.228Z,82.96
2019-03-27T10:57:36.172Z,82.47
2019-03-27T11:00:43.874Z,82.19
2019-03-27T11:03:54.606Z,82.45
2019-03-27T11:07:02.395Z,82.55
2019-03-27T11:10:10.460Z,80.67
2019-03-27T11:13:18.177Z,81.07
2019-03-27T11:16:25.836Z,81.08
2019-03-27T11:19:33.865Z,81.48
2019-03-27T11:22:41.530Z,80.75
2019-03-27T11:25:50.141Z,81.15
2019-03-27T11:28:57.799Z,80.50
2019-03-27T11:32:05.501Z,80.38
2019-03-27T11:35:13.346Z,80.78
2019-03-27T11:38:21.187Z,81.46
2019-03-27T11:41:28.980Z,80.78
2019-03-27T11:44:39.910Z,80.98
2019-03-27T11:47:47.928Z,81.50
2019-03-27T11:50:57.863Z,79.65
2019-03-27T11:54:05.339Z,80.65
2019-03-27T11:57:13.184Z,80.88
2019-03-27T12:00:21.403Z,80.52
2019-03-27T12:03:29.159Z,81.77
2019-03-27T12:06:36.874Z,80.65
2019-03-27T12:09:44.664Z,79.49
2019-03-27T12:12:52.317Z,79.40
2019-03-27T12:16:00.042Z,80.25
2019-03-27T12:19:07.818Z,79.16
2019-03-27T12:22:15.493Z,79.33
2019-03-27T12:25:23.137Z,79.17
2019-03-27T12:28:31.233Z,79.98
2019-03-27T12:31:38.963Z,78.73
2019-03-27T12:34:48.619Z,78.53
2019-03-27T12:37:56.346Z,78.22
2019-03-27T12:41:04.084Z,78.58
2019-03-27T12:44:11.864Z,78.75
2019-03-27T12:47:19.854Z,77.93
2019-03-27T12:50:27.596Z,77.70
2019-03-27T12:53:38.295Z,78.23
2019-03-27T12:56:46.022Z,78.31
2019-03-27T12:59:53.744Z,78.13
2019-03-27T13:03:01.412Z,77.58
2019-03-27T13:06:09.183Z,77.05
2019-03-27T13:09:16.808Z,77.22
2019-03-27T13:12:24.726Z,77.25
2019-03-27T13:15:32.546Z,77.74
2019-03-27T13:18:43.011Z,78.00
2019-03-27T13:21:50.776Z,76.36
2019-03-27T13:24:58.508Z,76.85
2019-03-27T13:28:06.306Z,76.51
2019-03-27T13:31:14.182Z,75.56
2019-03-27T13:34:21.889Z,75.36
2019-03-27T13:37:31.420Z,75.99
2019-03-27T13:40:41.712Z,75.95
2019-03-27T13:43:49.543Z,75.78
2019-03-27T13:46:57.319Z,76.27
2019-03-27T13:50:07.100Z,75.17
2019-03-27T13:53:14.885Z,75.41
2019-03-27T13:56:22.612Z,75.17
2019-03-27T13:59:30.280Z,75.79
2019-03-27T14:02:38.113Z,75.13
2019-03-27T14:05:45.810Z,75.33
2019-03-27T14:08:53.635Z,75.49
2019-03-27T14:12:01.307Z,75.21
2019-03-27T14:15:11.961Z,76.25
2019-03-27T14:18:19.901Z,74.95
2019-03-27T14:21:27.925Z,75.65
2019-03-27T14:24:35.635Z,75.85
2019-03-27T14:27:45.500Z,75.64
2019-03-27T14:30:58.693Z,76.26
2019-03-27T14:34:06.900Z,75.93
2019-03-27T14:37:14.723Z,75.04
2019-03-27T14:40:23.559Z,74.09
2019-03-27T14:43:31.297Z,74.03
2019-03-27T14:46:40.323Z,73.23
2019-03-27T14:49:48.025Z,73.24
2019-03-27T14:52:55.752Z,73.60
2019-03-27T14:56:06.594Z,74.75
2019-03-27T14:59:16.097Z,73.39
2019-03-27T15:02:23.782Z,74.49
2019-03-27T15:05:34.523Z,74.93
2019-03-27T15:08:41.265Z,74.30
2019-03-27T15:11:48.976Z,73.15
2019-03-27T15:14:56.639Z,73.46
2019-03-27T15:18:05.388Z,73.01
2019-03-27T15:21:13.153Z,71.85
2019-03-27T15:24:21.776Z,72.92
2019-03-27T15:27:29.897Z,72.81
2019-03-27T15:30:37.751Z,72.68
2019-03-27T15:33:45.454Z,72.15
2019-03-27T15:36:53.683Z,72.11
2019-03-27T15:40:01.340Z,71.38
2019-03-27T15:43:11.122Z,71.40
2019-03-27T15:46:18.872Z,73.32
2019-03-27T15:49:26.792Z,71.67
2019-03-27T15:52:37.463Z,71.50
2019-03-27T15:55:45.310Z,71.65
2019-03-27T15:58:56.269Z,71.85
2019-03-27T16:02:04.431Z,73.74
2019-03-27T16:05:12.101Z,72.88
2019-03-27T16:08:19.904Z,72.50
2019-03-27T16:11:27.562Z,72.11
2019-03-27T16:14:39.094Z,70.85
2019-03-27T16:17:49.824Z,72.26
2019-03-27T16:21:00.409Z,71.97
2019-03-27T16:24:08.448Z,72.79
2019-03-27T16:27:16.152Z,72.51
2019-03-27T16:30:23.852Z,73.58
2019-03-27T16:33:34.463Z,73.33
2019-03-27T16:36:42.169Z,72.90
2019-03-27T16:39:50.110Z,73.25
2019-03-27T16:42:58.860Z,73.83
2019-03-27T16:46:06.540Z,73.72
2019-03-27T16:49:15.437Z,73.45
2019-03-27T16:52:23.159Z,74.34
2019-03-27T16:55:36.170Z,74.78
2019-03-27T16:58:43.871Z,75.34
2019-03-27T17:01:51.777Z,76.11
2019-03-27T17:04:59.467Z,77.41
2019-03-27T17:08:07.186Z,76.50
2019-03-27T17:11:16.219Z,76.62
2019-03-27T17:14:24.404Z,75.83
2019-03-27T17:17:32.214Z,75.39
2019-03-27T17:20:54.727Z,75.82
2019-03-27T17:24:05.975Z,76.72
2019-03-27T17:27:15.346Z,76.95
2019-03-27T17:30:32.301Z,77.22
2019-03-27T17:33:44.346Z,78.58
2019-03-27T17:36:53.613Z,77.62
2019-03-27T17:40:04.614Z,77.49
2019-03-27T17:43:18.529Z,76.67
2019-03-27T17:46:27.835Z,77.30
2019-03-27T17:49:38.593Z,77.22
2019-03-27T17:52:49.717Z,77.66
2019-03-27T17:56:01.592Z,78.87
2019-03-27T17:59:10.984Z,79.29
2019-03-27T18:02:18.958Z,79.11
2019-03-27T18:05:27.989Z,78.46
2019-03-27T18:08:35.738Z,80.80
2019-03-27T18:11:43.466Z,80.49
2019-03-27T18:14:51.198Z,81.33
2019-03-27T18:17:58.988Z,80.68
2019-03-27T18:21:06.780Z,81.23
2019-03-27T18:24:14.483Z,80.90
2019-03-27T18:27:22.228Z,79.92
2019-03-27T18:30:31.843Z,79.70
2019-03-27T18:33:39.666Z,79.09
2019-03-27T18:36:53.796Z,79.57
2019-03-27T18:40:05.875Z,79.40
2019-03-27T18:43:30.473Z,79.90
2019-03-27T18:46:47.985Z,80.57
2019-03-27T18:49:56.557Z,80.67
2019-03-27T18:53:06.643Z,80.88
2019-03-27T18:56:18.244Z,80.40
2019-03-27T18:59:26.998Z,81.02
2019-03-27T19:02:38.692Z,81.35
2019-03-27T19:05:51.188Z,81.58
2019-03-27T19:09:00.081Z,82.28
2019-03-27T19:12:13.309Z,81.60
2019-03-27T19:15:21.107Z,82.90
2019-03-27T19:18:28.948Z,82.91
2019-03-27T19:21:36.698Z,83.78
2019-03-27T19:24:44.443Z,83.90
2019-03-27T19:27:52.214Z,83.19
2019-03-27T19:31:00.061Z,82.47
2019-03-27T19:34:07.852Z,81.99
2019-03-27T19:37:15.936Z,83.08
2019-03-27T19:40:24.262Z,82.61
2019-03-27T19:43:32.074Z,82.81
2019-03-27T19:46:39.939Z,82.85
2019-03-27T19:49:47.892Z,84.00
2019-03-27T19:52:55.727Z,83.62
2019-03-27T19:56:04.084Z,84.21
2019-03-27T19:59:12.005Z,84.85
2019-03-27T20:02:21.083Z,84.24
2019-03-27T20:05:29.030Z,85.60
2019-03-27T20:08:37.230Z,86.71
2019-03-27T20:11:45.104Z,85.26
2019-03-27T20:14:52.980Z,85.24
2019-03-27T20:18:00.942Z,86.39
2019-03-27T20:21:09.988Z,83.85
2019-03-27T20:24:17.917Z,82.09
2019-03-27T20:27:27.207Z,82.98
2019-03-27T20:30:36.768Z,82.63
2019-03-27T20:33:44.745Z,84.19
2019-03-27T20:36:53.541Z,83.03
2019-03-27T20:40:01.410Z,84.07
2019-03-27T20:43:09.910Z,83.87
2019-03-27T20:46:24.874Z,85.61
2019-03-27T20:49:28.876Z,85.26
2019-03-27T20:52:36.676Z,86.15
2019-03-27T20:55:44.460Z,85.88
2019-03-27T20:58:52.721Z,85.94
2019-03-27T21:02:00.672Z,85.22
2019-03-27T21:05:09.555Z,85.03
2019-03-27T21:08:19.520Z,85.15
2019-03-27T21:11:27.388Z,85.03
2019-03-27T21:14:35.166Z,84.83
2019-03-27T21:17:43.024Z,85.34
2019-03-27T21:20:50.880Z,84.89
2019-03-27T21:23:58.726Z,84.21
2019-03-27T21:27:09.625Z,83.40
2019-03-27T21:30:18.336Z,83.62
2019-03-27T21:33:28.637Z,83.51
2019-03-27T21:36:36.492Z,83.51
2019-03-27T21:39:44.329Z,83.46
2019-03-27T21:42:52.226Z,84.27
2019-03-27T21:46:00.264Z,83.80
2019-03-27T21:49:08.107Z,83.63
2019-03-27T21:52:17.550Z,82.88
2019-03-27T21:55:25.346Z,83.69
2019-03-27T21:58:33.105Z,83.49
2019-03-27T22:01:43.131Z,83.64
2019-03-27T22:04:50.880Z,84.03
2019-03-27T22:08:01.074Z,85.01
2019-03-27T22:11:08.735Z,85.09
2019-03-27T22:14:18.806Z,84.94
2019-03-27T22:17:28.766Z,85.21
2019-03-27T22:20:39.472Z,84.21
2019-03-27T22:23:46.353Z,84.29
2019-03-27T22:26:54.995Z,83.87
2019-03-27T22:30:02.719Z,83.63
2019-03-27T22:33:11.611Z,84.55
2019-03-27T22:36:19.499Z,87.98
2019-03-27T22:39:27.303Z,87.87
2019-03-27T22:42:35.064Z,86.65
2019-03-27T22:45:43.434Z,88.97
2019-03-27T22:48:51.771Z,89.33
2019-03-27T22:51:59.528Z,89.76
2019-03-27T22:55:07.554Z,89.59
2019-03-27T22:58:16.942Z,90.20
2019-03-27T23:01:25.135Z,91.10
2019-03-27T23:04:33.131Z,91.31
2019-03-27T23:07:41.233Z,91.09
2019-03-27T23:10:50.721Z,91.24
2019-03-27T23:14:01.487Z,91.48
2019-03-27T23:17:09.640Z,93.71
2019-03-27T23:20:20.216Z,92.26
2019-03-27T23:23:28.244Z,92.53
2019-03-27T23:26:37.023Z,92.12
2019-03-27T23:29:44.967Z,92.04
2019-03-27T23:32:53.925Z,91.85
2019-03-27T23:36:01.791Z,90.60
2019-03-27T23:39:10.737Z,90.98
2019-03-27T23:42:18.545Z,90.92
2019-03-27T23:45:26.976Z,92.21
2019-03-27T23:48:35.033Z,91.06
2019-03-27T23:51:43.408Z,89.15
2019-03-27T23:54:51.279Z,90.69
2019-03-27T23:57:59.058Z,91.02
